Time;durP1;ratioP1;P1;durP2;ratioP2;P2;SDS_P1;SDS_P2;PMS_P1;PMS_P2;Temp;Humidity;BMP_temperature;BMP_pressure;BME280_temperature;BME280_humidity;BME280_pressure;Samples;Min_cycle;Max_cycle;Signal;HPM_P1;HPM_P2
2023/03/06 00:00:57;;;;;;;14.23;9.00;;;;;;;;;;4957795;29;20062;-58
2023/03/06 00:03:22;;;;;;;17.40;10.65;;;;;;;;;;4957875;29;20093;-58
2023/03/06 00:05:48;;;;;;;19.88;10.80;;;;;;;;;;4957878;29;20551;-58
2023/03/06 00:08:15;;;;;;;25.77;13.00;;;;;;;;;;4958056;29;20544;-58
2023/03/06 00:10:41;;;;;;;32.08;15.55;;;;;;;;;;4957769;29;20075;-58
2023/03/06 00:13:07;;;;;;;29.77;14.02;;;;;;;;;;4957969;29;20125;-58
2023/03/06 00:15:32;;;;;;;27.42;14.70;;;;;;;;;;4957656;29;20500;-58
2023/03/06 00:17:58;;;;;;;30.73;14.95;;;;;;;;;;4957661;29;20102;-58
2023/03/06 00:20:24;;;;;;;30.35;15.75;;;;;;;;;;4957676;29;20392;-58
2023/03/06 00:22:50;;;;;;;27.85;15.73;;;;;;;;;;4940312;29;20043;-62
2023/03/06 00:25:16;;;;;;;28.88;15.63;;;;;;;;;;4957468;29;20043;-63
2023/03/06 00:27:42;;;;;;;21.38;12.20;;;;;;;;;;4957749;29;20052;-63
2023/03/06 00:30:09;;;;;;;17.85;10.68;;;;;;;;;;4940405;29;20043;-63
2023/03/06 00:32:35;;;;;;;17.80;10.20;;;;;;;;;;4957101;29;20039;-63
2023/03/06 00:35:01;;;;;;;19.48;11.18;;;;;;;;;;4956056;29;20055;-62
2023/03/06 00:37:26;;;;;;;22.42;12.73;;;;;;;;;;4939799;29;20035;-63
2023/03/06 00:39:51;;;;;;;24.98;13.25;;;;;;;;;;4957150;29;20436;-63
2023/03/06 00:42:18;;;;;;;26.20;13.38;;;;;;;;;;4957170;29;20043;-63
2023/03/06 00:44:43;;;;;;;25.58;13.38;;;;;;;;;;4957149;29;20070;-62
2023/03/06 00:47:10;;;;;;;26.67;14.35;;;;;;;;;;4955984;29;20130;-63
2023/03/06 00:49:35;;;;;;;33.70;15.02;;;;;;;;;;4955788;29;20130;-63
2023/03/06 00:52:00;;;;;;;33.13;15.93;;;;;;;;;;4955338;28;20078;-62
2023/03/06 00:54:25;;;;;;;30.42;15.18;;;;;;;;;;4955854;29;20067;-62
2023/03/06 00:56:51;;;;;;;21.63;12.15;;;;;;;;;;4956979;29;20042;-63
2023/03/06 00:59:16;;;;;;;20.23;11.52;;;;;;;;;;4956984;29;20126;-63
2023/03/06 01:01:41;;;;;;;18.42;10.98;;;;;;;;;;4956359;29;20046;-63
2023/03/06 01:04:07;;;;;;;18.80;11.43;;;;;;;;;;4955270;29;20039;-63
2023/03/06 01:06:32;;;;;;;21.02;11.98;;;;;;;;;;4955192;29;20039;-63
2023/03/06 01:09:00;;;;;;;20.02;11.55;;;;;;;;;;4955637;29;20035;-63
2023/03/06 01:11:25;;;;;;;17.17;10.45;;;;;;;;;;4955567;29;20439;-65
2023/03/06 01:13:51;;;;;;;19.45;11.07;;;;;;;;;;4955266;29;20046;-65
2023/03/06 01:16:18;;;;;;;15.20;9.77;;;;;;;;;;4955436;29;20058;-64
2023/03/06 01:18:47;;;;;;;15.82;9.05;;;;;;;;;;4956700;29;20043;-64
2023/03/06 01:21:12;;;;;;;15.20;8.77;;;;;;;;;;4956098;29;20031;-64
2023/03/06 01:23:38;;;;;;;15.75;8.63;;;;;;;;;;4955041;29;20403;-64
2023/03/06 01:26:03;;;;;;;29.02;11.57;;;;;;;;;;4955130;29;20130;-64
2023/03/06 01:28:29;;;;;;;27.55;11.88;;;;;;;;;;4955523;29;20051;-64
2023/03/06 01:30:54;;;;;;;18.63;9.85;;;;;;;;;;4954898;29;20046;-64
2023/03/06 01:33:20;;;;;;;12.05;7.28;;;;;;;;;;4963846;28;20480;-64
2023/03/06 01:35:45;;;;;;;11.35;7.05;;;;;;;;;;4975584;28;20039;-64
2023/03/06 01:38:12;;;;;;;11.05;7.35;;;;;;;;;;4975523;28;20063;-64
2023/03/06 01:40:38;;;;;;;14.63;7.90;;;;;;;;;;4990716;23;20076;-96
2023/03/06 01:43:22;;;;;;;18.40;8.88;;;;;;;;;;4997445;28;20026;-96
2023/03/06 01:45:50;;;;;;;19.15;10.00;;;;;;;;;;4983125;28;20088;-95
2023/03/06 01:48:19;;;;;;;16.98;9.05;;;;;;;;;;5000738;28;20160;-96
2023/03/06 01:50:44;;;;;;;17.88;8.75;;;;;;;;;;5000620;28;20045;-95
2023/03/06 01:53:10;;;;;;;12.38;7.40;;;;;;;;;;5000541;28;20395;-96
2023/03/06 01:55:38;;;;;;;14.63;8.40;;;;;;;;;;5000462;28;20033;-94
2023/03/06 01:58:05;;;;;;;8.63;6.07;;;;;;;;;;5000427;28;20033;-95
2023/03/06 02:00:33;;;;;;;9.40;6.47;;;;;;;;;;5000937;28;20033;-95
2023/03/06 02:03:21;;;;;;;7.93;5.75;;;;;;;;;;5000545;28;20029;-95
2023/03/06 02:05:46;;;;;;;8.15;5.72;;;;;;;;;;4976978;28;20045;-95
2023/03/06 02:08:13;;;;;;;8.02;5.55;;;;;;;;;;4977890;28;20039;-94
2023/03/06 02:10:52;;;;;;;9.00;6.35;;;;;;;;;;4977913;28;20497;-96
2023/03/06 02:13:18;;;;;;;10.25;6.45;;;;;;;;;;4978122;28;20038;-95
2023/03/06 02:15:44;;;;;;;10.57;7.18;;;;;;;;;;4977633;28;20382;-95
2023/03/06 02:18:09;;;;;;;10.10;7.03;;;;;;;;;;4977846;28;20046;-96
2023/03/06 02:20:38;;;;;;;10.15;6.60;;;;;;;;;;4977984;28;20043;-95
2023/03/06 02:23:09;;;;;;;10.63;6.35;;;;;;;;;;4961650;28;20066;-95
2023/03/06 02:25:34;;;;;;;9.50;5.97;;;;;;;;;;4978103;28;20051;-94
2023/03/06 02:28:00;;;;;;;11.15;6.45;;;;;;;;;;4977738;28;20046;-95
2023/03/06 02:30:26;;;;;;;11.93;6.43;;;;;;;;;;4977444;28;20023;-94
2023/03/06 02:32:51;;;;;;;9.63;6.38;;;;;;;;;;4993511;28;20485;-95
2023/03/06 02:35:22;;;;;;;11.35;6.90;;;;;;;;;;4977416;28;20045;-94
2023/03/06 02:37:48;;;;;;;13.45;7.40;;;;;;;;;;4977933;28;20070;-95
2023/03/06 02:40:16;;;;;;;12.20;7.20;;;;;;;;;;4993311;28;20164;-95
2023/03/06 02:42:50;;;;;;;9.93;7.65;;;;;;;;;;4977749;28;20050;-95
2023/03/06 02:48:50;;;;;;;10.80;7.63;;;;;;;;;;4989379;23;20125;-63
2023/03/06 02:51:16;;;;;;;10.18;7.78;;;;;;;;;;4974719;28;20046;-63
2023/03/06 02:53:42;;;;;;;14.05;7.70;;;;;;;;;;4957521;28;20423;-64
2023/03/06 02:56:07;;;;;;;11.98;7.88;;;;;;;;;;4957176;28;20076;-63
2023/03/06 02:58:33;;;;;;;11.55;8.15;;;;;;;;;;4957265;28;20067;-63
2023/03/06 03:00:58;;;;;;;13.90;8.65;;;;;;;;;;4974758;28;20039;-64
2023/03/06 03:03:25;;;;;;;14.95;8.52;;;;;;;;;;4974751;28;20149;-64
2023/03/06 03:05:51;;;;;;;14.52;9.48;;;;;;;;;;4941443;28;20118;-64
2023/03/06 03:08:23;;;;;;;13.07;9.77;;;;;;;;;;4942116;28;20374;-63
2023/03/06 03:10:54;;;;;;;16.95;10.13;;;;;;;;;;4957032;28;20050;-63
2023/03/06 03:13:21;;;;;;;14.25;9.93;;;;;;;;;;4941087;28;20035;-63
2023/03/06 03:15:58;;;;;;;14.65;10.80;;;;;;;;;;4960195;28;20026;-64
2023/03/06 03:18:23;;;;;;;17.02;10.20;;;;;;;;;;4960588;28;20039;-64
2023/03/06 03:20:48;;;;;;;15.48;10.40;;;;;;;;;;4960590;28;20054;-64
2023/03/06 03:23:14;;;;;;;16.98;10.65;;;;;;;;;;4978221;28;20043;-64
2023/03/06 03:25:39;;;;;;;17.60;11.20;;;;;;;;;;4977723;28;20450;-64
2023/03/06 03:28:05;;;;;;;15.15;9.95;;;;;;;;;;4977843;28;20093;-63
2023/03/06 03:30:31;;;;;;;16.98;11.13;;;;;;;;;;4960189;28;20047;-63
2023/03/06 03:32:56;;;;;;;16.63;11.55;;;;;;;;;;4960161;28;20372;-63
2023/03/06 03:35:22;;;;;;;19.08;12.10;;;;;;;;;;4944342;28;20027;-63
2023/03/06 03:37:47;;;;;;;17.40;12.30;;;;;;;;;;4960214;28;20582;-63
2023/03/06 03:40:13;;;;;;;19.75;13.00;;;;;;;;;;4960202;28;20478;-64
2023/03/06 03:42:38;;;;;;;19.58;12.57;;;;;;;;;;4960147;28;20050;-64
2023/03/06 03:45:05;;;;;;;16.85;12.25;;;;;;;;;;4960396;28;20069;-64
2023/03/06 03:47:30;;;;;;;17.88;12.32;;;;;;;;;;4944165;28;20074;-64
2023/03/06 03:49:56;;;;;;;20.05;12.77;;;;;;;;;;4977394;28;20047;-64
2023/03/06 03:52:22;;;;;;;17.95;12.65;;;;;;;;;;4959966;28;20399;-64
2023/03/06 03:54:47;;;;;;;19.17;12.65;;;;;;;;;;4943975;28;20412;-64
2023/03/06 03:57:13;;;;;;;19.83;12.82;;;;;;;;;;4960024;28;20039;-63
2023/03/06 03:59:43;;;;;;;17.15;13.15;;;;;;;;;;4959851;28;20077;-63
2023/03/06 04:02:35;;;;;;;18.80;12.73;;;;;;;;;;4973460;28;20031;-64
2023/03/06 04:05:13;;;;;;;19.13;12.52;;;;;;;;;;4977467;28;20384;-64
2023/03/06 04:07:39;;;;;;;21.13;12.63;;;;;;;;;;4959871;28;20077;-64
2023/03/06 04:10:06;;;;;;;20.75;13.23;;;;;;;;;;4943770;28;20074;-65
2023/03/06 04:12:34;;;;;;;21.20;14.15;;;;;;;;;;4959769;28;20039;-64
2023/03/06 04:14:59;;;;;;;21.23;14.43;;;;;;;;;;4959671;28;20049;-63
2023/03/06 04:17:26;;;;;;;21.38;15.02;;;;;;;;;;4959695;28;20034;-64
2023/03/06 04:19:53;;;;;;;17.35;13.50;;;;;;;;;;4960002;28;20046;-64
2023/03/06 04:22:18;;;;;;;21.00;14.32;;;;;;;;;;4977127;28;20043;-64
2023/03/06 04:24:44;;;;;;;22.15;15.18;;;;;;;;;;4976833;28;20057;-64
2023/03/06 04:27:09;;;;;;;24.48;15.52;;;;;;;;;;4958686;28;20039;-64
2023/03/06 04:29:35;;;;;;;23.35;16.05;;;;;;;;;;4959296;28;20499;-64
2023/03/06 04:32:01;;;;;;;21.67;14.85;;;;;;;;;;4959092;28;20035;-64
2023/03/06 04:34:26;;;;;;;23.77;16.45;;;;;;;;;;4959383;28;20386;-64
2023/03/06 04:36:52;;;;;;;24.77;16.40;;;;;;;;;;4946500;28;20038;-64
2023/03/06 04:39:17;;;;;;;33.40;21.33;;;;;;;;;;4978643;28;20097;-64
2023/03/06 04:41:42;;;;;;;31.98;20.70;;;;;;;;;;4944381;29;20067;-64
2023/03/06 04:44:08;;;;;;;28.33;18.80;;;;;;;;;;4940204;29;20047;-64
2023/03/06 04:46:33;;;;;;;29.05;18.70;;;;;;;;;;4956345;29;20031;-63
2023/03/06 04:48:58;;;;;;;31.33;20.92;;;;;;;;;;4957005;29;20495;-64
2023/03/06 04:51:24;;;;;;;29.27;19.80;;;;;;;;;;4957312;29;20043;-63
2023/03/06 04:53:49;;;;;;;33.42;20.52;;;;;;;;;;4957002;29;20464;-62
2023/03/06 04:56:15;;;;;;;30.13;20.10;;;;;;;;;;4956491;29;20047;-62
2023/03/06 04:58:41;;;;;;;33.13;22.40;;;;;;;;;;4956144;29;20027;-62
2023/03/06 05:01:07;;;;;;;36.40;22.98;;;;;;;;;;4956269;29;20051;-62
2023/03/06 05:03:32;;;;;;;36.17;22.70;;;;;;;;;;4956434;29;20046;-62
2023/03/06 05:05:57;;;;;;;34.17;23.27;;;;;;;;;;4956516;29;20035;-62
2023/03/06 05:08:23;;;;;;;36.00;23.63;;;;;;;;;;4956662;29;20039;-62
2023/03/06 05:10:53;;;;;;;30.70;20.92;;;;;;;;;;4956546;29;20047;-62
2023/03/06 05:13:19;;;;;;;35.38;24.95;;;;;;;;;;4956348;29;20491;-62
2023/03/06 05:15:44;;;;;;;33.80;23.55;;;;;;;;;;4956538;29;20027;-62
2023/03/06 05:18:09;;;;;;;34.35;23.85;;;;;;;;;;4971925;28;20375;-62
2023/03/06 05:20:35;;;;;;;32.33;23.23;;;;;;;;;;4994693;28;20449;-61
2023/03/06 05:23:00;;;;;;;32.78;22.30;;;;;;;;;;4994944;28;20038;-61
2023/03/06 05:25:25;;;;;;;33.65;22.95;;;;;;;;;;4994743;28;20041;-61
2023/03/06 05:27:51;;;;;;;33.25;22.27;;;;;;;;;;4995012;28;20041;-61
2023/03/06 05:30:16;;;;;;;33.08;22.95;;;;;;;;;;4977815;28;20080;-61
2023/03/06 05:32:41;;;;;;;32.88;22.83;;;;;;;;;;4994873;28;20114;-62
2023/03/06 05:35:14;;;;;;;31.15;21.65;;;;;;;;;;4995076;28;20038;-61
2023/03/06 05:37:39;;;;;;;32.75;22.42;;;;;;;;;;4994134;28;20402;-62
2023/03/06 05:40:08;;;;;;;30.80;21.00;;;;;;;;;;4975529;28;20034;-62
2023/03/06 05:42:33;;;;;;;28.92;21.63;;;;;;;;;;4977342;28;20525;-64
2023/03/06 05:45:00;;;;;;;28.15;19.92;;;;;;;;;;4994265;28;20046;-64
2023/03/06 05:47:25;;;;;;;30.27;21.15;;;;;;;;;;4994366;28;20046;-63
2023/03/06 05:49:50;;;;;;;28.60;19.35;;;;;;;;;;4994466;28;20039;-64
2023/03/06 05:52:16;;;;;;;29.58;20.73;;;;;;;;;;4994929;28;20080;-64
2023/03/06 05:54:41;;;;;;;33.35;22.23;;;;;;;;;;4976649;28;20398;-64
2023/03/06 05:57:07;;;;;;;22.40;15.27;;;;;;;;;;4976743;28;20434;-63
2023/03/06 05:59:32;;;;;;;34.83;20.98;;;;;;;;;;4993884;28;20030;-64
2023/03/06 06:01:58;;;;;;;23.48;16.70;;;;;;;;;;4993954;28;20497;-63
2023/03/06 06:04:25;;;;;;;22.70;17.17;;;;;;;;;;4993482;28;20031;-64
2023/03/06 06:06:54;;;;;;;29.30;21.13;;;;;;;;;;4993352;28;20070;-63
2023/03/06 06:09:21;;;;;;;31.00;21.17;;;;;;;;;;4975754;28;20038;-62
2023/03/06 06:11:49;;;;;;;27.83;19.98;;;;;;;;;;4993848;28;20050;-63
2023/03/06 06:14:14;;;;;;;25.35;18.75;;;;;;;;;;4994203;28;20028;-62
2023/03/06 06:16:39;;;;;;;29.77;20.90;;;;;;;;;;4993938;28;20390;-62
2023/03/06 06:19:05;;;;;;;28.60;20.35;;;;;;;;;;4993969;28;20045;-63
2023/03/06 06:21:30;;;;;;;29.73;20.65;;;;;;;;;;4993225;28;20034;-63
2023/03/06 06:23:55;;;;;;;29.75;20.40;;;;;;;;;;4993843;28;20047;-63
2023/03/06 06:26:20;;;;;;;27.65;19.60;;;;;;;;;;4976115;28;20121;-61
2023/03/06 06:28:46;;;;;;;25.20;19.17;;;;;;;;;;4993536;28;20117;-62
2023/03/06 06:31:12;;;;;;;27.65;19.02;;;;;;;;;;4993242;28;20395;-62
2023/03/06 06:33:37;;;;;;;21.38;16.55;;;;;;;;;;4993156;28;20070;-62
2023/03/06 06:36:03;;;;;;;22.63;16.08;;;;;;;;;;4994139;28;20074;-61
2023/03/06 06:38:28;;;;;;;28.17;19.00;;;;;;;;;;4994269;28;20027;-56
2023/03/06 06:40:53;;;;;;;24.33;17.15;;;;;;;;;;5002463;23;20062;-61
2023/03/06 06:43:21;;;;;;;23.65;16.58;;;;;;;;;;5005027;23;20050;-62
2023/03/06 06:45:47;;;;;;;21.88;15.45;;;;;;;;;;4992379;28;20081;-62
2023/03/06 06:48:12;;;;;;;19.05;13.80;;;;;;;;;;4994107;28;20038;-62
2023/03/06 06:50:37;;;;;;;18.50;13.82;;;;;;;;;;4997079;28;20038;-61
2023/03/06 06:53:11;;;;;;;20.48;15.27;;;;;;;;;;4997758;28;20038;-62
2023/03/06 06:55:36;;;;;;;17.77;12.13;;;;;;;;;;4996924;28;20379;-61
2023/03/06 06:58:02;;;;;;;16.88;12.20;;;;;;;;;;4979581;28;20046;-61
2023/03/06 07:00:27;;;;;;;27.05;17.75;;;;;;;;;;4996670;28;20038;-62
2023/03/06 07:02:52;;;;;;;18.08;11.82;;;;;;;;;;4994885;28;20134;-61
2023/03/06 07:05:18;;;;;;;17.30;12.27;;;;;;;;;;4995038;28;20048;-61
2023/03/06 07:07:44;;;;;;;16.55;12.25;;;;;;;;;;4996729;28;20509;-62
2023/03/06 07:10:11;;;;;;;16.88;11.32;;;;;;;;;;4996686;28;20042;-62
2023/03/06 07:12:36;;;;;;;14.82;10.98;;;;;;;;;;4997559;28;20390;-62
2023/03/06 07:15:02;;;;;;;15.73;11.98;;;;;;;;;;4997256;28;20037;-61
2023/03/06 07:17:28;;;;;;;18.13;12.13;;;;;;;;;;4997204;28;20092;-61
2023/03/06 07:19:53;;;;;;;19.05;13.05;;;;;;;;;;4997158;28;20540;-61
2023/03/06 07:22:18;;;;;;;16.13;11.80;;;;;;;;;;4997097;28;20098;-61
2023/03/06 07:24:43;;;;;;;13.60;10.18;;;;;;;;;;4979640;28;20046;-62
2023/03/06 07:27:09;;;;;;;14.98;10.27;;;;;;;;;;4997046;28;20490;-62
2023/03/06 07:29:34;;;;;;;14.70;10.70;;;;;;;;;;4997210;28;20043;-62
2023/03/06 07:31:59;;;;;;;15.25;11.07;;;;;;;;;;4996983;28;20120;-61
2023/03/06 07:34:25;;;;;;;19.42;14.93;;;;;;;;;;4979848;28;20042;-61
2023/03/06 07:36:50;;;;;;;16.50;11.93;;;;;;;;;;4996883;28;20049;-61
2023/03/06 07:39:15;;;;;;;16.20;11.20;;;;;;;;;;4997054;28;20093;-61
2023/03/06 07:41:41;;;;;;;15.07;10.13;;;;;;;;;;4979323;28;20066;-61
2023/03/06 07:44:06;;;;;;;15.10;11.63;;;;;;;;;;4996571;28;20035;-61
2023/03/06 07:46:31;;;;;;;13.98;9.35;;;;;;;;;;4979198;28;20038;-61
2023/03/06 07:48:57;;;;;;;15.52;10.85;;;;;;;;;;4979504;28;20094;-61
2023/03/06 07:51:22;;;;;;;13.55;9.93;;;;;;;;;;4996796;28;20043;-61
2023/03/06 07:53:48;;;;;;;15.23;11.35;;;;;;;;;;4996517;28;20094;-61
2023/03/06 07:56:13;;;;;;;19.17;13.68;;;;;;;;;;4996489;28;20034;-61
2023/03/06 07:58:40;;;;;;;14.50;10.77;;;;;;;;;;4996459;28;20180;-61
2023/03/06 08:01:06;;;;;;;11.70;8.52;;;;;;;;;;4995094;28;20410;-61
2023/03/06 08:03:32;;;;;;;12.20;8.55;;;;;;;;;;4962772;28;20042;-61
2023/03/06 08:06:04;;;;;;;12.15;9.10;;;;;;;;;;4996270;28;20038;-61
2023/03/06 08:08:29;;;;;;;13.52;9.05;;;;;;;;;;4996832;28;20140;-63
2023/03/06 08:10:54;;;;;;;13.77;9.80;;;;;;;;;;4996425;28;20074;-63
2023/03/06 08:13:21;;;;;;;14.95;9.88;;;;;;;;;;4996176;28;20050;-63
2023/03/06 08:15:47;;;;;;;13.00;8.85;;;;;;;;;;4996425;28;20165;-63
2023/03/06 08:18:12;;;;;;;13.10;9.52;;;;;;;;;;4996086;28;20071;-63
2023/03/06 08:20:38;;;;;;;18.30;13.18;;;;;;;;;;4978691;28;20488;-63
2023/03/06 08:23:03;;;;;;;11.93;7.80;;;;;;;;;;4978562;28;20074;-63
2023/03/06 08:25:28;;;;;;;11.13;7.45;;;;;;;;;;4978480;28;20034;-63
2023/03/06 08:27:54;;;;;;;10.70;8.13;;;;;;;;;;4995958;28;20092;-63
2023/03/06 08:30:20;;;;;;;12.15;7.93;;;;;;;;;;4996098;28;20039;-63
2023/03/06 08:32:45;;;;;;;8.77;6.93;;;;;;;;;;4996059;28;20554;-63
2023/03/06 08:35:11;;;;;;;8.85;6.65;;;;;;;;;;4996061;28;20070;-63
2023/03/06 08:37:36;;;;;;;12.43;8.15;;;;;;;;;;4995735;28;20101;-63
2023/03/06 08:40:03;;;;;;;8.40;7.10;;;;;;;;;;4995669;28;20479;-63
2023/03/06 08:42:28;;;;;;;7.00;6.32;;;;;;;;;;4994400;28;20035;-63
2023/03/06 08:44:54;;;;;;;8.77;6.43;;;;;;;;;;4995483;28;20046;-63
2023/03/06 08:47:20;;;;;;;9.07;6.40;;;;;;;;;;4995742;28;20042;-63
2023/03/06 08:49:45;;;;;;;7.20;6.07;;;;;;;;;;4978304;28;20081;-63
2023/03/06 08:52:11;;;;;;;7.47;6.72;;;;;;;;;;4995766;28;20089;-63
2023/03/06 08:54:37;;;;;;;10.80;6.10;;;;;;;;;;4995401;28;20459;-63
2023/03/06 08:57:03;;;;;;;9.00;5.38;;;;;;;;;;4995367;28;20049;-63
2023/03/06 08:59:28;;;;;;;9.02;6.45;;;;;;;;;;4995319;28;20030;-63
2023/03/06 09:01:53;;;;;;;9.10;6.88;;;;;;;;;;4995285;28;20498;-63
2023/03/06 09:04:19;;;;;;;11.25;6.25;;;;;;;;;;4995471;28;20042;-63
2023/03/06 09:06:44;;;;;;;9.20;7.10;;;;;;;;;;4995179;28;20394;-63
2023/03/06 09:09:10;;;;;;;9.50;6.43;;;;;;;;;;4995410;28;20050;-63
2023/03/06 09:11:35;;;;;;;10.20;6.50;;;;;;;;;;4995028;28;20049;-63
2023/03/06 09:14:00;;;;;;;8.35;5.40;;;;;;;;;;4994907;28;20039;-63
2023/03/06 09:16:26;;;;;;;7.80;6.10;;;;;;;;;;4994943;28;20093;-63
2023/03/06 09:18:52;;;;;;;7.28;5.97;;;;;;;;;;4994974;28;20038;-63
2023/03/06 09:21:18;;;;;;;6.63;4.70;;;;;;;;;;4994933;28;20084;-63
2023/03/06 09:23:44;;;;;;;8.25;6.10;;;;;;;;;;4994858;28;20070;-63
2023/03/06 09:26:09;;;;;;;5.35;3.95;;;;;;;;;;4995373;28;20078;-63
2023/03/06 09:28:37;;;;;;;6.63;5.45;;;;;;;;;;4994814;28;20081;-63
2023/03/06 09:31:06;;;;;;;6.50;4.47;;;;;;;;;;4994669;28;20065;-63
2023/03/06 09:33:32;;;;;;;7.68;5.18;;;;;;;;;;4977386;28;20046;-63
2023/03/06 09:35:57;;;;;;;5.70;5.18;;;;;;;;;;4994981;28;20165;-63
2023/03/06 09:38:24;;;;;;;7.35;5.20;;;;;;;;;;4995211;28;20023;-63
2023/03/06 09:40:56;;;;;;;5.90;4.47;;;;;;;;;;4994579;28;20042;-63
2023/03/06 09:43:27;;;;;;;6.53;5.13;;;;;;;;;;4976934;28;20070;-63
2023/03/06 09:45:52;;;;;;;5.00;3.95;;;;;;;;;;4994814;28;20475;-63
2023/03/06 09:48:21;;;;;;;7.05;5.60;;;;;;;;;;4994425;28;20081;-63
2023/03/06 09:51:06;;;;;;;7.50;5.63;;;;;;;;;;4994921;28;20038;-63
2023/03/06 09:53:50;;;;;;;3.42;2.92;;;;;;;;;;4994175;28;20046;-63
2023/03/06 09:56:20;;;;;;;7.53;5.03;;;;;;;;;;4993113;28;20541;-63
2023/03/06 09:58:56;;;;;;;6.97;4.10;;;;;;;;;;4994344;28;20026;-62
2023/03/06 10:01:30;;;;;;;7.88;6.15;;;;;;;;;;4994862;28;20038;-61
2023/03/06 10:04:15;;;;;;;5.75;4.70;;;;;;;;;;4976872;28;20049;-61
2023/03/06 10:06:53;;;;;;;5.93;4.57;;;;;;;;;;4983656;28;20473;-61
2023/03/06 10:09:18;;;;;;;6.75;4.95;;;;;;;;;;4994493;28;20046;-62
2023/03/06 10:12:02;;;;;;;6.30;4.60;;;;;;;;;;4994114;28;20112;-61
2023/03/06 10:14:36;;;;;;;9.15;5.38;;;;;;;;;;4994432;28;20066;-61
2023/03/06 10:17:02;;;;;;;7.28;5.30;;;;;;;;;;4994675;28;20038;-61
2023/03/06 10:19:35;;;;;;;6.18;3.80;;;;;;;;;;4976952;28;20041;-61
2023/03/06 10:22:12;;;;;;;11.90;7.20;;;;;;;;;;4994377;28;20038;-61
2023/03/06 10:24:37;;;;;;;7.38;5.60;;;;;;;;;;4995871;28;20046;-61
2023/03/06 10:27:22;;;;;;;9.25;6.03;;;;;;;;;;4998449;28;20126;-61
2023/03/06 10:29:56;;;;;;;3.70;3.30;;;;;;;;;;4996768;28;20041;-63
2023/03/06 10:32:28;;;;;;;8.32;5.35;;;;;;;;;;4980946;28;20518;-63
2023/03/06 10:34:56;;;;;;;6.88;4.70;;;;;;;;;;4998212;28;20034;-63
2023/03/06 10:37:21;;;;;;;7.32;4.78;;;;;;;;;;4997935;28;20042;-64
2023/03/06 10:39:56;;;;;;;6.10;5.00;;;;;;;;;;4980476;28;20039;-63
2023/03/06 10:42:22;;;;;;;7.53;6.20;;;;;;;;;;4998167;28;20066;-63
2023/03/06 10:44:47;;;;;;;6.88;5.28;;;;;;;;;;4997619;28;20038;-63
2023/03/06 10:47:27;;;;;;;7.35;6.18;;;;;;;;;;4997779;28;20034;-63
2023/03/06 10:49:53;;;;;;;;;;;;;;;;;;4980710;28;20082;-63
2023/03/06 10:52:20;;;;;;;4.93;4.13;;;;;;;;;;4998275;28;19956;-63
2023/03/06 10:54:47;;;;;;;6.88;4.80;;;;;;;;;;4997618;28;20030;-63
2023/03/06 10:57:32;;;;;;;5.95;3.80;;;;;;;;;;4997605;28;20056;-63
2023/03/06 10:59:59;;;;;;;4.53;4.03;;;;;;;;;;4980215;28;20046;-63
2023/03/06 11:02:27;;;;;;;1.55;1.13;;;;;;;;;;4980085;28;20054;-63
2023/03/06 11:04:53;;;;;;;1.73;1.27;;;;;;;;;;4997464;28;20402;-63
2023/03/06 11:07:23;;;;;;;4.68;3.50;;;;;;;;;;4980081;28;20051;-63
2023/03/06 11:09:54;;;;;;;4.60;3.45;;;;;;;;;;4997557;28;20050;-63
2023/03/06 11:12:19;;;;;;;4.95;4.07;;;;;;;;;;4997333;28;20041;-63
2023/03/06 11:14:45;;;;;;;2.50;1.80;;;;;;;;;;4997314;28;20390;-63
2023/03/06 11:17:30;;;;;;;5.85;4.22;;;;;;;;;;4997521;28;20066;-63
2023/03/06 11:20:14;;;;;;;5.03;4.50;;;;;;;;;;4997471;28;20035;-63
2023/03/06 11:22:40;;;;;;;5.97;3.78;;;;;;;;;;4997409;28;20031;-63
2023/03/06 11:25:10;;;;;;;2.85;2.53;;;;;;;;;;4997073;28;20045;-63
2023/03/06 11:27:41;;;;;;;4.45;3.55;;;;;;;;;;4979974;28;20094;-63
2023/03/06 11:30:14;;;;;;;3.97;2.75;;;;;;;;;;4979893;28;20394;-63
2023/03/06 11:33:06;;;;;;;5.63;3.55;;;;;;;;;;4979540;28;20042;-63
2023/03/06 11:35:34;;;;;;;3.65;2.75;;;;;;;;;;4974004;28;20038;-63
2023/03/06 11:38:11;;;;;;;2.75;2.53;;;;;;;;;;5010662;23;20503;-63
2023/03/06 11:40:58;;;;;;;5.70;3.65;;;;;;;;;;5021337;23;20058;-58
2023/03/06 11:43:28;;;;;;;3.05;2.55;;;;;;;;;;5030308;23;20439;-58
2023/03/06 11:46:00;;;;;;;3.80;3.05;;;;;;;;;;5016297;28;20042;-58
2023/03/06 11:48:42;;;;;;;3.90;3.10;;;;;;;;;;5016797;28;20049;-57
2023/03/06 11:51:17;;;;;;;3.33;2.88;;;;;;;;;;5016419;28;20371;-58
2023/03/06 11:53:43;;;;;;;3.28;2.97;;;;;;;;;;5016425;28;20533;-58
2023/03/06 11:56:17;;;;;;;3.78;3.20;;;;;;;;;;5016137;28;20111;-58
2023/03/06 11:58:42;;;;;;;2.75;2.40;;;;;;;;;;5016351;28;20038;-58
2023/03/06 12:01:08;;;;;;;3.78;2.92;;;;;;;;;;5016344;28;20030;-58
2023/03/06 12:03:48;;;;;;;3.97;2.97;;;;;;;;;;5015981;28;20045;-58
2023/03/06 12:06:19;;;;;;;6.20;3.72;;;;;;;;;;5015896;28;20058;-58
2023/03/06 12:08:57;;;;;;;4.78;3.50;;;;;;;;;;4998235;28;20383;-58
2023/03/06 12:11:25;;;;;;;4.35;2.90;;;;;;;;;;5016297;28;20045;-58
2023/03/06 12:14:08;;;;;;;3.05;2.58;;;;;;;;;;5015856;28;20117;-57
2023/03/06 12:16:57;;;;;;;3.15;2.85;;;;;;;;;;5016289;28;20038;-58
2023/03/06 12:19:31;;;;;;;3.55;3.03;;;;;;;;;;4987935;28;20045;-58
2023/03/06 12:22:00;;;;;;;2.97;2.67;;;;;;;;;;5015948;28;20048;-58
2023/03/06 12:24:37;;;;;;;2.75;2.55;;;;;;;;;;5015878;28;20029;-56
2023/03/06 12:27:11;;;;;;;3.90;3.22;;;;;;;;;;5016108;28;20045;-58
2023/03/06 12:29:55;;;;;;;2.13;1.90;;;;;;;;;;5015782;28;20605;-56
2023/03/06 12:32:20;;;;;;;3.85;2.38;;;;;;;;;;5015400;28;20569;-56
2023/03/06 12:35:02;;;;;;;1.25;1.15;;;;;;;;;;5015688;28;20061;-55
2023/03/06 12:37:40;;;;;;;4.75;2.60;;;;;;;;;;5015561;28;20029;-55
2023/03/06 12:40:24;;;;;;;2.58;2.38;;;;;;;;;;5015440;28;20049;-55
2023/03/06 12:43:01;;;;;;;3.17;2.88;;;;;;;;;;5015541;28;20048;-55
2023/03/06 12:45:27;;;;;;;3.47;3.15;;;;;;;;;;4998143;28;20530;-55
2023/03/06 12:47:54;;;;;;;2.60;2.40;;;;;;;;;;5014394;28;20076;-55
2023/03/06 12:50:22;;;;;;;3.40;2.58;;;;;;;;;;5015070;28;20054;-56
2023/03/06 12:52:47;;;;;;;3.53;2.30;;;;;;;;;;5015203;28;20069;-55
2023/03/06 12:55:15;;;;;;;4.32;2.85;;;;;;;;;;5015329;28;20108;-56
2023/03/06 12:57:40;;;;;;;3.30;2.53;;;;;;;;;;5015280;28;20046;-56
2023/03/06 13:00:07;;;;;;;5.28;2.80;;;;;;;;;;5014910;28;20045;-56
2023/03/06 13:02:33;;;;;;;3.13;2.83;;;;;;;;;;5015159;28;20037;-56
2023/03/06 13:05:17;;;;;;;3.90;2.90;;;;;;;;;;5014859;28;20034;-56
2023/03/06 13:07:51;;;;;;;2.70;2.50;;;;;;;;;;5015041;28;20497;-56
2023/03/06 13:10:16;;;;;;;3.10;2.80;;;;;;;;;;5014691;28;20125;-56
2023/03/06 13:13:03;;;;;;;2.72;2.53;;;;;;;;;;4997506;28;20072;-56
2023/03/06 13:15:41;;;;;;;3.65;2.75;;;;;;;;;;5014685;28;20121;-56
2023/03/06 13:18:21;;;;;;;6.57;4.13;;;;;;;;;;4996991;28;20434;-56
2023/03/06 13:20:47;;;;;;;;;;;;;;;;;;5015526;28;20427;-55
2023/03/06 13:23:35;;;;;;;5.03;3.20;;;;;;;;;;5014518;28;20410;-56
2023/03/06 13:26:07;;;;;;;8.38;4.47;;;;;;;;;;5014406;28;20073;-56
2023/03/06 13:28:43;;;;;;;4.22;3.10;;;;;;;;;;4996845;28;20474;-56
2023/03/06 13:31:09;;;;;;;6.20;4.13;;;;;;;;;;5014877;28;20042;-56
2023/03/06 13:33:36;;;;;;;3.92;3.45;;;;;;;;;;5014370;28;20042;-56
2023/03/06 13:36:20;;;;;;;5.00;3.35;;;;;;;;;;5014604;28;20120;-56
2023/03/06 13:38:48;;;;;;;5.57;2.88;;;;;;;;;;4996650;28;20149;-55
2023/03/06 13:41:19;;;;;;;3.70;3.33;;;;;;;;;;5014207;28;20142;-56
2023/03/06 13:43:45;;;;;;;6.22;4.40;;;;;;;;;;5014459;28;20057;-56
2023/03/06 13:46:24;;;;;;;4.88;4.10;;;;;;;;;;5014468;28;20041;-56
2023/03/06 13:49:02;;;;;;;4.22;3.83;;;;;;;;;;5014408;28;20046;-56
2023/03/06 13:51:32;;;;;;;3.47;3.15;;;;;;;;;;5014021;28;20042;-56
2023/03/06 13:54:36;;;;;;;3.38;3.05;;;;;;;;;;5014080;28;20034;-56
2023/03/06 13:57:14;;;;;;;8.60;5.75;;;;;;;;;;4934677;29;20071;-56
2023/03/06 13:59:57;;;;;;;6.22;4.40;;;;;;;;;;4934715;29;20043;-56
2023/03/06 14:02:38;;;;;;;12.52;7.18;;;;;;;;;;4987980;28;20042;-56
2023/03/06 14:05:10;;;;;;;5.97;3.97;;;;;;;;;;4980195;28;20089;-56
2023/03/06 14:07:40;;;;;;;5.00;3.45;;;;;;;;;;5014173;28;20247;-56
2023/03/06 14:10:24;;;;;;;7.18;3.65;;;;;;;;;;5014084;28;20046;-56
2023/03/06 14:12:49;;;;;;;8.27;4.47;;;;;;;;;;5013843;28;20076;-56
2023/03/06 14:15:19;;;;;;;10.25;4.72;;;;;;;;;;5014089;28;20057;-56
2023/03/06 14:18:02;;;;;;;6.05;3.38;;;;;;;;;;5014092;28;20466;-56
2023/03/06 14:20:45;;;;;;;2.45;2.25;;;;;;;;;;5014063;28;20049;-56
2023/03/06 14:23:15;;;;;;;2.90;2.55;;;;;;;;;;5014016;28;20042;-56
2023/03/06 14:25:41;;;;;;;2.67;2.17;;;;;;;;;;5014308;28;20042;-56
2023/03/06 14:28:19;;;;;;;2.08;1.98;;;;;;;;;;5013711;28;20069;-56
2023/03/06 14:30:48;;;;;;;3.15;2.47;;;;;;;;;;5013852;28;20046;-56
2023/03/06 14:33:22;;;;;;;3.05;2.40;;;;;;;;;;5013906;28;20053;-56
2023/03/06 14:35:50;;;;;;;4.53;2.70;;;;;;;;;;5013234;28;20505;-56
2023/03/06 14:38:15;;;;;;;6.32;3.88;;;;;;;;;;5012659;28;20045;-56
2023/03/06 14:40:42;;;;;;;6.70;4.30;;;;;;;;;;5012651;28;20050;-56
2023/03/06 14:43:19;;;;;;;6.75;4.00;;;;;;;;;;5012581;28;20117;-55